createdAt,value
2022-12-31T00:00:58.499Z,1.10
2022-12-31T00:01:58.706Z,1.30
2022-12-31T00:02:58.515Z,1.40
2022-12-31T00:03:58.404Z,1.00
2022-12-31T00:04:58.372Z,1.10
2022-12-31T00:05:58.264Z,0.90
2022-12-31T00:06:58.373Z,1.40
2022-12-31T00:07:58.263Z,1.20
2022-12-31T00:08:58.137Z,0.80
2022-12-31T00:09:58.144Z,1.00
2022-12-31T00:10:58.138Z,0.80
2022-12-31T00:11:58.257Z,0.80
2022-12-31T00:13:58.142Z,1.20
2022-12-31T00:14:58.153Z,1.00
2022-12-31T00:15:58.049Z,1.00
2022-12-31T00:16:58.070Z,1.20
2022-12-31T00:17:57.785Z,1.00
2022-12-31T00:18:57.906Z,1.10
2022-12-31T00:20:57.546Z,0.80
2022-12-31T00:21:57.550Z,1.10
2022-12-31T00:22:57.552Z,1.00
2022-12-31T00:23:57.435Z,1.10
2022-12-31T00:24:57.553Z,1.20
2022-12-31T00:25:57.435Z,1.10
2022-12-31T00:26:57.313Z,0.90
2022-12-31T00:27:57.314Z,1.30
2022-12-31T00:28:57.195Z,1.10
2022-12-31T00:30:02.531Z,1.10
2022-12-31T00:30:57.245Z,1.20
2022-12-31T00:31:57.109Z,1.20
2022-12-31T00:32:57.088Z,1.20
2022-12-31T00:33:57.085Z,1.00
2022-12-31T00:34:56.961Z,1.20
2022-12-31T00:35:56.965Z,1.40
2022-12-31T00:36:56.967Z,1.30
2022-12-31T00:37:56.853Z,1.70
2022-12-31T00:38:56.859Z,1.40
2022-12-31T00:39:56.735Z,1.60
2022-12-31T00:40:56.729Z,1.30
2022-12-31T00:41:56.743Z,2.00
2022-12-31T00:42:56.619Z,2.10
2022-12-31T00:43:56.617Z,2.20
2022-12-31T00:44:56.626Z,2.20
2022-12-31T00:45:56.634Z,2.20
2022-12-31T00:46:56.498Z,2.70
2022-12-31T00:47:56.403Z,2.70
2022-12-31T00:48:56.456Z,2.80
2022-12-31T20:43:02.696Z,1.80
2022-12-31T20:44:02.591Z,2.60
2022-12-31T20:45:02.555Z,3.10
2022-12-31T20:46:02.447Z,3.00
2022-12-31T20:47:02.432Z,2.70
2022-12-31T20:48:02.420Z,2.40
2022-12-31T20:49:02.321Z,3.00
2022-12-31T20:50:11.417Z,2.30
2022-12-31T20:51:02.199Z,2.50
2022-12-31T20:52:02.208Z,2.70
2022-12-31T20:53:02.201Z,2.50
2022-12-31T20:54:02.083Z,2.80
2022-12-31T20:55:02.086Z,2.80
2022-12-31T20:56:02.077Z,2.80
2022-12-31T20:57:01.970Z,2.80
2022-12-31T20:58:02.097Z,2.80
2022-12-31T20:59:01.960Z,2.60
2022-12-31T21:00:01.898Z,2.90
2022-12-31T21:01:02.083Z,2.70
2022-12-31T21:03:10.814Z,2.90
2022-12-31T21:04:06.712Z,2.60
2022-12-31T21:05:01.867Z,2.70
2022-12-31T21:06:01.770Z,3.00
2022-12-31T21:07:01.613Z,2.80
2022-12-31T21:08:01.503Z,2.80
2022-12-31T21:09:01.503Z,2.50
2022-12-31T21:10:01.388Z,2.60
2022-12-31T21:11:01.380Z,2.70
2022-12-31T21:12:01.389Z,2.60
2022-12-31T21:13:01.274Z,2.30
2022-12-31T21:14:01.267Z,2.30
2022-12-31T21:15:01.289Z,2.40
2022-12-31T21:16:01.203Z,2.70
2022-12-31T21:17:01.155Z,2.60
2022-12-31T21:18:01.147Z,2.60
2022-12-31T21:19:01.032Z,2.70
2022-12-31T21:20:01.047Z,2.50
2022-12-31T21:21:01.029Z,2.50
2022-12-31T21:22:00.915Z,2.80
2022-12-31T21:23:01.003Z,2.90
2022-12-31T21:24:00.912Z,2.40
2022-12-31T21:25:00.893Z,3.10
2022-12-31T21:26:00.799Z,3.00
2022-12-31T21:27:00.765Z,2.90
2022-12-31T21:28:00.775Z,7.80
2022-12-31T21:29:00.688Z,5.80
2022-12-31T21:30:26.807Z,3.10
2022-12-31T21:31:00.711Z,2.60
2022-12-31T21:32:00.659Z,2.70
2022-12-31T21:33:00.530Z,2.60
2022-12-31T21:34:00.540Z,2.60
2022-12-31T21:35:40.010Z,2.90
2022-12-31T21:36:04.438Z,2.40
2022-12-31T21:37:00.425Z,2.50
2022-12-31T21:38:00.723Z,2.40
2022-12-31T21:39:00.298Z,2.60
2022-12-31T21:40:00.302Z,2.30
2022-12-31T21:41:00.304Z,2.60
2022-12-31T21:42:00.185Z,2.90
2022-12-31T21:43:00.181Z,3.00
2022-12-31T21:44:00.195Z,2.70
2022-12-31T21:45:00.103Z,3.20
2022-12-31T21:46:00.149Z,2.80
2022-12-31T21:47:33.942Z,3.10
2022-12-31T21:47:59.952Z,2.60
2022-12-31T21:48:59.971Z,3.10
2022-12-31T21:49:59.830Z,2.70
2022-12-31T21:50:59.830Z,2.40
2022-12-31T21:51:59.830Z,2.60
2022-12-31T21:52:59.728Z,2.50
2022-12-31T21:53:59.720Z,2.80
2022-12-31T21:54:59.714Z,3.00
2022-12-31T21:55:59.601Z,3.00
2022-12-31T21:56:59.835Z,2.70
2022-12-31T21:58:25.209Z,2.80
2022-12-31T21:58:59.478Z,3.10
2022-12-31T22:00:31.973Z,3.80
2022-12-31T22:00:59.718Z,3.20
2022-12-31T22:01:59.774Z,2.80
2022-12-31T22:02:59.954Z,3.10
2022-12-31T22:03:59.493Z,2.90
2022-12-31T22:05:02.372Z,3.10
2022-12-31T22:05:59.376Z,2.90
2022-12-31T22:07:59.247Z,2.80
2022-12-31T22:08:59.015Z,2.60
2022-12-31T22:09:59.011Z,3.10
2022-12-31T22:10:59.008Z,3.20
2022-12-31T22:11:58.892Z,3.10
2022-12-31T22:12:59.050Z,2.90
2022-12-31T22:13:58.897Z,2.70
2022-12-31T22:15:15.174Z,2.70
2022-12-31T22:16:04.286Z,2.60
2022-12-31T22:16:58.780Z,3.10
2022-12-31T22:17:58.658Z,2.80
2022-12-31T22:18:58.686Z,2.30
2022-12-31T22:20:28.168Z,4.10
2022-12-31T22:20:58.571Z,6.60
2022-12-31T22:21:58.539Z,11.00
2022-12-31T22:22:58.423Z,7.40
2022-12-31T22:23:58.427Z,5.00
2022-12-31T22:24:58.428Z,3.00
2022-12-31T22:25:58.306Z,3.20
2022-12-31T22:26:58.307Z,2.30
2022-12-31T22:28:36.191Z,2.20
2022-12-31T22:28:58.190Z,2.50
2022-12-31T22:29:58.192Z,2.30
2022-12-31T22:30:58.242Z,2.70
2022-12-31T22:32:01.116Z,2.30
2022-12-31T22:32:58.072Z,2.60
2022-12-31T22:33:58.083Z,2.50
2022-12-31T22:34:57.980Z,2.50
2022-12-31T22:35:57.954Z,2.40
2022-12-31T22:36:57.835Z,2.50
2022-12-31T22:38:03.270Z,2.50
2022-12-31T22:38:57.840Z,2.30
2022-12-31T22:39:57.724Z,2.40
2022-12-31T22:40:57.726Z,2.40
2022-12-31T22:41:57.722Z,3.10
2022-12-31T22:42:57.604Z,2.70
2022-12-31T22:44:02.957Z,2.40
2022-12-31T22:44:57.610Z,3.00
2022-12-31T22:45:57.485Z,2.40
2022-12-31T22:46:57.526Z,2.80
2022-12-31T22:47:57.494Z,2.60
2022-12-31T22:48:57.367Z,2.30
2022-12-31T22:49:57.309Z,2.50
2022-12-31T22:50:57.377Z,2.80
2022-12-31T22:52:00.742Z,2.60
2022-12-31T22:52:57.255Z,2.60
2022-12-31T22:53:57.138Z,2.70
2022-12-31T22:54:57.137Z,3.00
2022-12-31T22:55:57.071Z,2.90
2022-12-31T22:56:56.958Z,3.40
2022-12-31T22:57:56.950Z,3.40
2022-12-31T22:58:57.018Z,2.70
2022-12-31T22:59:56.833Z,3.30
2022-12-31T23:00:56.834Z,3.20
2022-12-31T23:01:56.830Z,7.20
2022-12-31T23:02:56.720Z,20.40
2022-12-31T23:03:56.753Z,9.40
2022-12-31T23:05:15.246Z,24.80
2022-12-31T23:05:56.607Z,31.40
2022-12-31T23:06:56.624Z,33.20
2022-12-31T23:07:56.603Z,28.90
2022-12-31T23:08:56.478Z,40.90
2022-12-31T23:09:56.476Z,55.70
2022-12-31T23:10:56.462Z,63.10
2022-12-31T23:11:56.355Z,97.90
2022-12-31T23:12:56.357Z,71.30
2022-12-31T23:13:56.361Z,65.50
2022-12-31T23:14:56.240Z,48.30
2022-12-31T23:15:56.307Z,34.70
2022-12-31T23:16:56.225Z,41.50
2022-12-31T23:17:56.229Z,60.40
2022-12-31T23:19:01.838Z,52.90
2022-12-31T23:19:56.005Z,47.20
2022-12-31T23:20:55.998Z,50.40
2022-12-31T23:21:56.036Z,42.20
2022-12-31T23:22:55.902Z,53.10
2022-12-31T23:23:55.878Z,40.40
2022-12-31T23:24:55.880Z,35.80
2022-12-31T23:25:55.759Z,54.00
2022-12-31T23:26:55.767Z,46.70
2022-12-31T23:27:55.760Z,32.10
2022-12-31T23:28:55.646Z,33.80
